sensor_id;sensor_type;location;lat;lon;timestamp;pressure;altitude;pressure_sealevel;temperature;humidity
32083;BME280;18597;48.328;7.932;2022-07-04T00:00:59;99637.97;;;18.70;95.57
32083;BME280;18597;48.328;7.932;2022-07-04T00:03:25;99643.56;;;18.68;95.74
32083;BME280;18597;48.328;7.932;2022-07-04T00:05:51;99648.06;;;18.91;95.12
32083;BME280;18597;48.328;7.932;2022-07-04T00:08:17;99641.47;;;19.08;93.93
32083;BME280;18597;48.328;7.932;2022-07-04T00:10:43;99643.88;;;19.18;92.89
32083;BME280;18597;48.328;7.932;2022-07-04T00:13:08;99656.88;;;19.22;90.85
32083;BME280;18597;48.328;7.932;2022-07-04T00:15:34;99656.78;;;19.16;91.00
32083;BME280;18597;48.328;7.932;2022-07-04T00:18:00;99662.94;;;19.24;90.75
32083;BME280;18597;48.328;7.932;2022-07-04T00:20:26;99665.94;;;19.15;90.85
32083;BME280;18597;48.328;7.932;2022-07-04T00:22:52;99660.22;;;19.24;90.43
32083;BME280;18597;48.328;7.932;2022-07-04T00:25:18;99656.13;;;19.13;90.92
32083;BME280;18597;48.328;7.932;2022-07-04T00:27:44;99664.69;;;19.02;91.67
32083;BME280;18597;48.328;7.932;2022-07-04T00:30:10;99661.72;;;18.97;91.75
32083;BME280;18597;48.328;7.932;2022-07-04T00:32:36;99671.84;;;18.80;92.71
32083;BME280;18597;48.328;7.932;2022-07-04T00:35:02;99673.78;;;18.72;93.55
32083;BME280;18597;48.328;7.932;2022-07-04T00:37:28;99673.59;;;18.73;93.73
32083;BME280;18597;48.328;7.932;2022-07-04T00:39:54;99669.94;;;18.66;93.44
32083;BME280;18597;48.328;7.932;2022-07-04T00:42:21;99667.13;;;18.60;92.77
32083;BME280;18597;48.328;7.932;2022-07-04T00:44:46;99658.50;;;18.79;92.27
32083;BME280;18597;48.328;7.932;2022-07-04T00:47:12;99661.97;;;18.65;92.80
32083;BME280;18597;48.328;7.932;2022-07-04T00:49:38;99656.50;;;18.50;93.89
32083;BME280;18597;48.328;7.932;2022-07-04T00:52:06;99666.25;;;18.36;94.87
32083;BME280;18597;48.328;7.932;2022-07-04T00:54:33;99673.44;;;18.29;95.93
32083;BME280;18597;48.328;7.932;2022-07-04T00:57:00;99676.34;;;18.19;97.13
32083;BME280;18597;48.328;7.932;2022-07-04T00:59:27;99684.34;;;18.13;97.96
32083;BME280;18597;48.328;7.932;2022-07-04T01:01:53;99679.28;;;18.10;99.12
32083;BME280;18597;48.328;7.932;2022-07-04T01:04:19;99686.50;;;18.17;99.42
32083;BME280;18597;48.328;7.932;2022-07-04T01:06:45;99680.91;;;18.19;100.00
32083;BME280;18597;48.328;7.932;2022-07-04T01:09:12;99686.38;;;18.11;100.00
32083;BME280;18597;48.328;7.932;2022-07-04T01:11:38;99695.88;;;18.07;100.00
32083;BME280;18597;48.328;7.932;2022-07-04T01:14:04;99685.50;;;18.18;99.56
32083;BME280;18597;48.328;7.932;2022-07-04T01:16:33;99689.22;;;18.17;99.25
32083;BME280;18597;48.328;7.932;2022-07-04T01:18:59;99697.91;;;18.05;99.63
32083;BME280;18597;48.328;7.932;2022-07-04T01:21:25;99694.53;;;18.02;99.35
32083;BME280;18597;48.328;7.932;2022-07-04T01:23:51;99705.84;;;18.06;99.09
32083;BME280;18597;48.328;7.932;2022-07-04T01:26:17;99717.91;;;18.49;98.50
32083;BME280;18597;48.328;7.932;2022-07-04T01:28:44;99715.50;;;18.54;98.20
32083;BME280;18597;48.328;7.932;2022-07-04T01:31:10;99724.44;;;18.32;99.58
32083;BME280;18597;48.328;7.932;2022-07-04T01:33:36;99721.59;;;18.25;100.00
32083;BME280;18597;48.328;7.932;2022-07-04T01:36:03;99717.69;;;18.28;99.36
32083;BME280;18597;48.328;7.932;2022-07-04T01:38:29;99723.66;;;18.23;99.34
32083;BME280;18597;48.328;7.932;2022-07-04T01:40:55;99716.31;;;18.09;100.00
32083;BME280;18597;48.328;7.932;2022-07-04T01:43:20;99718.81;;;18.11;100.00
32083;BME280;18597;48.328;7.932;2022-07-04T01:45:46;99716.81;;;18.05;100.00
32083;BME280;18597;48.328;7.932;2022-07-04T01:48:14;99710.28;;;17.99;100.00
32083;BME280;18597;48.328;7.932;2022-07-04T01:50:40;99717.06;;;17.95;100.00
32083;BME280;18597;48.328;7.932;2022-07-04T01:53:07;99712.84;;;17.92;100.00
32083;BME280;18597;48.328;7.932;2022-07-04T01:55:33;99709.81;;;17.87;100.00
32083;BME280;18597;48.328;7.932;2022-07-04T01:57:59;99713.50;;;17.94;100.00
32083;BME280;18597;48.328;7.932;2022-07-04T02:00:26;99713.88;;;17.91;100.00
32083;BME280;18597;48.328;7.932;2022-07-04T02:03:12;99706.06;;;17.96;100.00
32083;BME280;18597;48.328;7.932;2022-07-04T02:05:39;99713.59;;;17.78;100.00
32083;BME280;18597;48.328;7.932;2022-07-04T02:08:06;99712.91;;;17.68;100.00
32083;BME280;18597;48.328;7.932;2022-07-04T02:10:32;99722.22;;;17.65;100.00
32083;BME280;18597;48.328;7.932;2022-07-04T02:12:59;99721.06;;;17.52;100.00
32083;BME280;18597;48.328;7.932;2022-07-04T02:18:07;99736.47;;;17.43;100.00
32083;BME280;18597;48.328;7.932;2022-07-04T02:20:34;99736.28;;;17.44;100.00
32083;BME280;18597;48.328;7.932;2022-07-04T02:23:02;99737.59;;;17.57;100.00
32083;BME280;18597;48.328;7.932;2022-07-04T02:25:28;99725.81;;;17.50;100.00
32083;BME280;18597;48.328;7.932;2022-07-04T02:27:55;99730.56;;;17.47;100.00
32083;BME280;18597;48.328;7.932;2022-07-04T02:30:22;99736.47;;;17.43;100.00
32083;BME280;18597;48.328;7.932;2022-07-04T02:32:47;99731.91;;;17.43;100.00
32083;BME280;18597;48.328;7.932;2022-07-04T02:35:13;99732.25;;;17.40;100.00
32083;BME280;18597;48.328;7.932;2022-07-04T02:37:40;99738.66;;;17.47;100.00
32083;BME280;18597;48.328;7.932;2022-07-04T02:40:07;99735.97;;;17.39;100.00
32083;BME280;18597;48.328;7.932;2022-07-04T02:42:35;99739.97;;;17.52;100.00
32083;BME280;18597;48.328;7.932;2022-07-04T02:45:02;99746.56;;;17.57;100.00
32083;BME280;18597;48.328;7.932;2022-07-04T02:47:28;99753.81;;;17.57;100.00
32083;BME280;18597;48.328;7.932;2022-07-04T02:49:54;99757.03;;;17.52;100.00
32083;BME280;18597;48.328;7.932;2022-07-04T02:52:20;99754.28;;;17.60;100.00
32083;BME280;18597;48.328;7.932;2022-07-04T02:54:46;99752.44;;;17.77;100.00
32083;BME280;18597;48.328;7.932;2022-07-04T02:57:12;99741.78;;;17.67;100.00
32083;BME280;18597;48.328;7.932;2022-07-04T02:59:39;99747.88;;;17.69;100.00
32083;BME280;18597;48.328;7.932;2022-07-04T03:02:05;99749.22;;;17.73;100.00
32083;BME280;18597;48.328;7.932;2022-07-04T03:04:31;99748.06;;;17.76;100.00
32083;BME280;18597;48.328;7.932;2022-07-04T03:06:57;99751.72;;;17.83;100.00
32083;BME280;18597;48.328;7.932;2022-07-04T03:09:23;99745.16;;;18.17;98.72
32083;BME280;18597;48.328;7.932;2022-07-04T03:11:52;99735.56;;;18.14;98.19
32083;BME280;18597;48.328;7.932;2022-07-04T03:14:18;99738.78;;;18.10;98.61
32083;BME280;18597;48.328;7.932;2022-07-04T03:16:44;99738.31;;;18.06;96.65
32083;BME280;18597;48.328;7.932;2022-07-04T03:19:10;99748.34;;;17.81;98.82
32083;BME280;18597;48.328;7.932;2022-07-04T03:21:36;99739.63;;;17.71;99.86
32083;BME280;18597;48.328;7.932;2022-07-04T03:24:01;99739.94;;;17.60;100.00
32083;BME280;18597;48.328;7.932;2022-07-04T03:26:30;99744.91;;;17.48;100.00
32083;BME280;18597;48.328;7.932;2022-07-04T03:28:57;99748.25;;;17.50;100.00
32083;BME280;18597;48.328;7.932;2022-07-04T03:31:24;99757.88;;;17.44;100.00
32083;BME280;18597;48.328;7.932;2022-07-04T03:33:52;99759.75;;;17.36;100.00
32083;BME280;18597;48.328;7.932;2022-07-04T03:36:18;99763.31;;;17.28;100.00
32083;BME280;18597;48.328;7.932;2022-07-04T03:38:45;99754.72;;;17.25;100.00
32083;BME280;18597;48.328;7.932;2022-07-04T03:41:11;99752.53;;;17.20;100.00
32083;BME280;18597;48.328;7.932;2022-07-04T03:43:37;99759.13;;;17.17;100.00
32083;BME280;18597;48.328;7.932;2022-07-04T03:46:03;99763.84;;;17.24;100.00
32083;BME280;18597;48.328;7.932;2022-07-04T03:48:29;99757.75;;;17.30;100.00
32083;BME280;18597;48.328;7.932;2022-07-04T03:50:56;99761.97;;;17.32;100.00
32083;BME280;18597;48.328;7.932;2022-07-04T03:53:22;99767.69;;;17.37;100.00
32083;BME280;18597;48.328;7.932;2022-07-04T03:55:48;99764.50;;;17.34;100.00
32083;BME280;18597;48.328;7.932;2022-07-04T03:58:14;99769.72;;;17.35;100.00
32083;BME280;18597;48.328;7.932;2022-07-04T04:00:40;99777.81;;;17.43;99.41
32083;BME280;18597;48.328;7.932;2022-07-04T04:03:08;99773.38;;;17.59;96.94
32083;BME280;18597;48.328;7.932;2022-07-04T04:05:55;99773.06;;;17.62;95.20
32083;BME280;18597;48.328;7.932;2022-07-04T04:08:21;99781.50;;;17.59;95.13
32083;BME280;18597;48.328;7.932;2022-07-04T04:10:47;99790.63;;;17.50;95.06
32083;BME280;18597;48.328;7.932;2022-07-04T04:13:14;99791.66;;;17.40;96.92
32083;BME280;18597;48.328;7.932;2022-07-04T04:15:40;99791.31;;;17.35;97.00
32083;BME280;18597;48.328;7.932;2022-07-04T04:18:06;99792.34;;;17.34;96.34
32083;BME280;18597;48.328;7.932;2022-07-04T04:20:31;99797.72;;;17.42;95.56
32083;BME280;18597;48.328;7.932;2022-07-04T04:22:57;99794.19;;;17.50;95.08
32083;BME280;18597;48.328;7.932;2022-07-04T04:25:23;99793.13;;;17.59;94.28
32083;BME280;18597;48.328;7.932;2022-07-04T04:27:49;99798.53;;;17.75;93.30
32083;BME280;18597;48.328;7.932;2022-07-04T04:30:15;99796.97;;;17.89;92.28
32083;BME280;18597;48.328;7.932;2022-07-04T04:32:40;99796.59;;;18.00;90.83
32083;BME280;18597;48.328;7.932;2022-07-04T04:35:07;99801.31;;;18.07;90.22
32083;BME280;18597;48.328;7.932;2022-07-04T04:37:33;99805.31;;;18.19;88.46
32083;BME280;18597;48.328;7.932;2022-07-04T04:39:59;99810.81;;;18.34;86.42
32083;BME280;18597;48.328;7.932;2022-07-04T04:42:25;99795.81;;;18.54;84.49
32083;BME280;18597;48.328;7.932;2022-07-04T04:44:51;99795.94;;;18.69;82.83
32083;BME280;18597;48.328;7.932;2022-07-04T04:47:17;99797.78;;;19.14;81.23
32083;BME280;18597;48.328;7.932;2022-07-04T04:49:43;99800.91;;;20.08;75.56
32083;BME280;18597;48.328;7.932;2022-07-04T04:52:09;99799.09;;;20.81;71.32
32083;BME280;18597;48.328;7.932;2022-07-04T04:54:37;99795.47;;;21.16;68.80
32083;BME280;18597;48.328;7.932;2022-07-04T04:57:03;99793.81;;;21.43;68.00
32083;BME280;18597;48.328;7.932;2022-07-04T04:59:29;99802.47;;;22.16;64.68
32083;BME280;18597;48.328;7.932;2022-07-04T05:01:57;99801.31;;;23.52;58.80
32083;BME280;18597;48.328;7.932;2022-07-04T05:04:23;99802.25;;;25.01;52.86
32083;BME280;18597;48.328;7.932;2022-07-04T05:06:49;99805.81;;;25.83;50.07
32083;BME280;18597;48.328;7.932;2022-07-04T05:09:15;99806.00;;;26.73;47.10
32083;BME280;18597;48.328;7.932;2022-07-04T05:11:41;99810.06;;;27.54;44.46
32083;BME280;18597;48.328;7.932;2022-07-04T05:14:07;99817.34;;;27.72;43.78
32083;BME280;18597;48.328;7.932;2022-07-04T05:16:33;99805.13;;;26.91;45.37
32083;BME280;18597;48.328;7.932;2022-07-04T05:18:59;99813.03;;;25.77;48.33
32083;BME280;18597;48.328;7.932;2022-07-04T05:21:26;99802.38;;;24.81;50.83
32083;BME280;18597;48.328;7.932;2022-07-04T05:23:54;99811.69;;;24.08;53.06
32083;BME280;18597;48.328;7.932;2022-07-04T05:26:21;99813.06;;;23.73;54.62
32083;BME280;18597;48.328;7.932;2022-07-04T05:28:47;99817.25;;;23.29;56.10
32083;BME280;18597;48.328;7.932;2022-07-04T05:31:13;99813.25;;;22.98;58.18
32083;BME280;18597;48.328;7.932;2022-07-04T05:33:39;99804.75;;;22.74;59.03
32083;BME280;18597;48.328;7.932;2022-07-04T05:36:05;99805.38;;;22.69;59.28
32083;BME280;18597;48.328;7.932;2022-07-04T05:38:32;99809.16;;;22.81;58.61
32083;BME280;18597;48.328;7.932;2022-07-04T05:40:57;99816.19;;;23.63;56.01
32083;BME280;18597;48.328;7.932;2022-07-04T05:43:23;99813.75;;;26.09;48.10
32083;BME280;18597;48.328;7.932;2022-07-04T05:45:51;99801.69;;;28.07;43.04
32083;BME280;18597;48.328;7.932;2022-07-04T05:48:18;99797.88;;;30.06;37.96
32083;BME280;18597;48.328;7.932;2022-07-04T05:50:43;99789.50;;;31.16;36.15
32083;BME280;18597;48.328;7.932;2022-07-04T05:53:09;99785.97;;;32.42;34.54
32083;BME280;18597;48.328;7.932;2022-07-04T05:55:35;99768.69;;;33.54;32.62
32083;BME280;18597;48.328;7.932;2022-07-04T05:58:01;99769.97;;;34.12;31.84
32083;BME280;18597;48.328;7.932;2022-07-04T06:00:27;99769.97;;;34.07;31.38
32083;BME280;18597;48.328;7.932;2022-07-04T06:02:54;99770.50;;;34.19;30.91
32083;BME280;18597;48.328;7.932;2022-07-04T06:05:20;99759.28;;;34.50;30.00
32083;BME280;18597;48.328;7.932;2022-07-04T06:07:45;99746.47;;;33.94;30.69
32083;BME280;18597;48.328;7.932;2022-07-04T06:10:14;99750.31;;;34.09;30.28
32083;BME280;18597;48.328;7.932;2022-07-04T06:12:40;99751.97;;;34.69;29.29
32083;BME280;18597;48.328;7.932;2022-07-04T06:15:06;99746.78;;;35.31;27.71
32083;BME280;18597;48.328;7.932;2022-07-04T06:17:36;99750.34;;;34.58;28.15
32083;BME280;18597;48.328;7.932;2022-07-04T06:20:02;99744.31;;;32.95;30.79
32083;BME280;18597;48.328;7.932;2022-07-04T06:22:38;99751.97;;;32.47;30.90
32083;BME280;18597;48.328;7.932;2022-07-04T06:25:05;99750.66;;;32.75;30.92
32083;BME280;18597;48.328;7.932;2022-07-04T06:27:31;99753.44;;;33.72;30.03
32083;BME280;18597;48.328;7.932;2022-07-04T06:29:56;99749.13;;;34.25;28.07
32083;BME280;18597;48.328;7.932;2022-07-04T06:32:22;99751.44;;;33.98;28.72
32083;BME280;18597;48.328;7.932;2022-07-04T06:34:48;99751.25;;;34.38;28.31
32083;BME280;18597;48.328;7.932;2022-07-04T06:37:34;99759.25;;;35.68;26.84
32083;BME280;18597;48.328;7.932;2022-07-04T06:40:00;99748.91;;;35.44;26.63
32083;BME280;18597;48.328;7.932;2022-07-04T06:42:26;99748.78;;;34.37;28.19
32083;BME280;18597;48.328;7.932;2022-07-04T06:44:51;99744.91;;;33.43;28.88
32083;BME280;18597;48.328;7.932;2022-07-04T06:47:17;99740.72;;;33.09;29.79
32083;BME280;18597;48.328;7.932;2022-07-04T06:49:43;99738.81;;;33.05;30.25
32083;BME280;18597;48.328;7.932;2022-07-04T06:52:09;99745.16;;;33.00;30.39
32083;BME280;18597;48.328;7.932;2022-07-04T06:54:35;99742.59;;;32.63;30.94
32083;BME280;18597;48.328;7.932;2022-07-04T06:57:00;99747.03;;;32.69;31.54
32083;BME280;18597;48.328;7.932;2022-07-04T06:59:26;99752.34;;;32.91;31.40
32083;BME280;18597;48.328;7.932;2022-07-04T07:01:52;99745.44;;;32.99;31.41
32083;BME280;18597;48.328;7.932;2022-07-04T07:04:18;99758.69;;;33.68;30.22
32083;BME280;18597;48.328;7.932;2022-07-04T07:06:44;99756.50;;;34.50;28.64
32083;BME280;18597;48.328;7.932;2022-07-04T07:09:09;99757.69;;;34.83;28.41
32083;BME280;18597;48.328;7.932;2022-07-04T07:11:35;99778.69;;;34.55;28.49
32083;BME280;18597;48.328;7.932;2022-07-04T07:14:01;99778.41;;;34.52;28.53
32083;BME280;18597;48.328;7.932;2022-07-04T07:16:27;99779.72;;;34.69;28.51
32083;BME280;18597;48.328;7.932;2022-07-04T07:18:53;99785.72;;;34.82;28.54
32083;BME280;18597;48.328;7.932;2022-07-04T07:21:18;99788.47;;;34.92;28.31
32083;BME280;18597;48.328;7.932;2022-07-04T07:23:44;99797.06;;;34.90;28.64
32083;BME280;18597;48.328;7.932;2022-07-04T07:26:11;99798.09;;;35.39;27.93
32083;BME280;18597;48.328;7.932;2022-07-04T07:28:37;99802.38;;;35.89;27.10
32083;BME280;18597;48.328;7.932;2022-07-04T07:31:04;99793.34;;;36.02;27.12
32083;BME280;18597;48.328;7.932;2022-07-04T07:33:30;99791.13;;;35.75;26.86
32083;BME280;18597;48.328;7.932;2022-07-04T07:35:55;99789.50;;;36.22;26.82
32083;BME280;18597;48.328;7.932;2022-07-04T07:38:21;99779.59;;;36.11;26.77
32083;BME280;18597;48.328;7.932;2022-07-04T07:40:47;99787.13;;;37.15;25.91
32083;BME280;18597;48.328;7.932;2022-07-04T07:43:13;99782.75;;;38.84;23.83
32083;BME280;18597;48.328;7.932;2022-07-04T07:45:39;99779.56;;;39.98;22.93
32083;BME280;18597;48.328;7.932;2022-07-04T07:48:05;99790.88;;;41.07;21.85
32083;BME280;18597;48.328;7.932;2022-07-04T07:50:32;99782.31;;;41.20;21.51
32083;BME280;18597;48.328;7.932;2022-07-04T07:52:58;99773.91;;;40.20;22.29
32083;BME280;18597;48.328;7.932;2022-07-04T07:55:24;99776.91;;;40.89;21.55
32083;BME280;18597;48.328;7.932;2022-07-04T07:57:50;99769.56;;;41.57;20.76
32083;BME280;18597;48.328;7.932;2022-07-04T08:00:16;99767.47;;;41.37;21.05
32083;BME280;18597;48.328;7.932;2022-07-04T08:02:42;99761.16;;;41.57;20.84
32083;BME280;18597;48.328;7.932;2022-07-04T08:05:28;99759.75;;;42.49;19.78
32083;BME280;18597;48.328;7.932;2022-07-04T08:07:53;99758.09;;;44.13;18.41
32083;BME280;18597;48.328;7.932;2022-07-04T08:10:19;99758.09;;;45.30;17.87
32083;BME280;18597;48.328;7.932;2022-07-04T08:12:45;99744.22;;;46.01;16.71
32083;BME280;18597;48.328;7.932;2022-07-04T08:15:11;99737.31;;;47.04;15.79
32083;BME280;18597;48.328;7.932;2022-07-04T08:17:37;99728.84;;;47.04;16.05
32083;BME280;18597;48.328;7.932;2022-07-04T08:20:04;99727.75;;;47.31;15.50
32083;BME280;18597;48.328;7.932;2022-07-04T08:22:30;99718.88;;;46.71;15.68
32083;BME280;18597;48.328;7.932;2022-07-04T08:24:55;99716.13;;;46.94;15.01
32083;BME280;18597;48.328;7.932;2022-07-04T08:27:21;99709.69;;;46.78;15.39
32083;BME280;18597;48.328;7.932;2022-07-04T08:29:49;99704.19;;;47.04;15.50
32083;BME280;18597;48.328;7.932;2022-07-04T08:32:17;99693.38;;;47.29;14.89
32083;BME280;18597;48.328;7.932;2022-07-04T08:34:43;99708.59;;;47.44;14.60
32083;BME280;18597;48.328;7.932;2022-07-04T08:37:09;99700.59;;;47.49;14.74
32083;BME280;18597;48.328;7.932;2022-07-04T08:39:35;99706.28;;;47.72;14.55
32083;BME280;18597;48.328;7.932;2022-07-04T08:42:06;99700.19;;;47.93;14.58
32083;BME280;18597;48.328;7.932;2022-07-04T08:44:39;99697.78;;;47.95;14.74
32083;BME280;18597;48.328;7.932;2022-07-04T08:47:09;99694.19;;;47.30;15.52
32083;BME280;18597;48.328;7.932;2022-07-04T08:49:37;99688.91;;;47.28;15.21
32083;BME280;18597;48.328;7.932;2022-07-04T08:52:05;99687.09;;;47.39;14.46
32083;BME280;18597;48.328;7.932;2022-07-04T08:54:33;99679.22;;;47.75;15.57
32083;BME280;18597;48.328;7.932;2022-07-04T08:57:18;99676.94;;;46.18;15.90
32083;BME280;18597;48.328;7.932;2022-07-04T09:00:06;99685.16;;;46.62;15.90
32083;BME280;18597;48.328;7.932;2022-07-04T09:02:34;99681.75;;;47.15;15.00
32083;BME280;18597;48.328;7.932;2022-07-04T09:05:03;99680.25;;;46.59;14.95
32083;BME280;18597;48.328;7.932;2022-07-04T09:07:31;99682.25;;;46.59;15.08
32083;BME280;18597;48.328;7.932;2022-07-04T09:09:57;99679.25;;;47.10;14.60
32083;BME280;18597;48.328;7.932;2022-07-04T09:12:24;99689.16;;;47.42;14.47
32083;BME280;18597;48.328;7.932;2022-07-04T09:14:50;99689.09;;;47.85;14.38
32083;BME280;18597;48.328;7.932;2022-07-04T09:17:17;99697.97;;;47.37;14.05
32083;BME280;18597;48.328;7.932;2022-07-04T09:19:43;99694.41;;;46.43;14.26
32083;BME280;18597;48.328;7.932;2022-07-04T09:22:10;99693.44;;;46.36;14.70
32083;BME280;18597;48.328;7.932;2022-07-04T09:24:52;99691.66;;;45.17;15.25
32083;BME280;18597;48.328;7.932;2022-07-04T09:27:39;99695.09;;;41.77;18.08
32083;BME280;18597;48.328;7.932;2022-07-04T09:30:06;99691.97;;;38.37;20.92
32083;BME280;18597;48.328;7.932;2022-07-04T09:32:42;99700.00;;;36.39;23.93
32083;BME280;18597;48.328;7.932;2022-07-04T09:35:11;99701.25;;;35.27;25.75
32083;BME280;18597;48.328;7.932;2022-07-04T09:37:43;99697.75;;;34.43;24.65
32083;BME280;18597;48.328;7.932;2022-07-04T09:40:32;99695.50;;;33.80;26.01
32083;BME280;18597;48.328;7.932;2022-07-04T09:43:01;99696.16;;;33.26;27.21
32083;BME280;18597;48.328;7.932;2022-07-04T09:45:55;99701.44;;;32.97;28.31
32083;BME280;18597;48.328;7.932;2022-07-04T09:48:22;99694.25;;;32.91;28.62
32083;BME280;18597;48.328;7.932;2022-07-04T09:50:48;99697.50;;;32.63;28.37
32083;BME280;18597;48.328;7.932;2022-07-04T09:53:13;99702.91;;;31.64;30.01
32083;BME280;18597;48.328;7.932;2022-07-04T09:55:40;99707.56;;;31.54;29.14
32083;BME280;18597;48.328;7.932;2022-07-04T09:58:08;99717.78;;;31.53;29.47
32083;BME280;18597;48.328;7.932;2022-07-04T10:00:39;99712.34;;;31.68;29.77
32083;BME280;18597;48.328;7.932;2022-07-04T10:03:26;99718.56;;;31.96;29.01
32083;BME280;18597;48.328;7.932;2022-07-04T10:06:12;99705.59;;;31.96;29.59
32083;BME280;18597;48.328;7.932;2022-07-04T10:08:43;99702.31;;;32.10;28.76
32083;BME280;18597;48.328;7.932;2022-07-04T10:11:10;99701.75;;;30.81;31.03
32083;BME280;18597;48.328;7.932;2022-07-04T10:13:38;99698.19;;;31.17;31.85
32083;BME280;18597;48.328;7.932;2022-07-04T10:16:04;99700.34;;;31.47;31.60
32083;BME280;18597;48.328;7.932;2022-07-04T10:18:30;99698.22;;;31.60;32.43
32083;BME280;18597;48.328;7.932;2022-07-04T10:20:57;99690.53;;;31.67;31.27
32083;BME280;18597;48.328;7.932;2022-07-04T10:23:24;99690.84;;;31.75;31.63
32083;BME280;18597;48.328;7.932;2022-07-04T10:25:56;99693.22;;;32.19;32.21
32083;BME280;18597;48.328;7.932;2022-07-04T10:28:22;99682.53;;;32.33;29.80
32083;BME280;18597;48.328;7.932;2022-07-04T10:30:53;99678.97;;;32.78;28.59
32083;BME280;18597;48.328;7.932;2022-07-04T10:33:26;99667.69;;;33.05;29.05
32083;BME280;18597;48.328;7.932;2022-07-04T10:38:46;99666.78;;;33.56;29.38
32083;BME280;18597;48.328;7.932;2022-07-04T10:41:12;99672.81;;;33.73;28.93
32083;BME280;18597;48.328;7.932;2022-07-04T10:44:05;99671.16;;;33.72;28.36
32083;BME280;18597;48.328;7.932;2022-07-04T10:46:37;99676.75;;;33.52;27.60
32083;BME280;18597;48.328;7.932;2022-07-04T10:49:21;99666.25;;;33.49;28.06
32083;BME280;18597;48.328;7.932;2022-07-04T10:54:32;99669.16;;;33.78;28.90
32083;BME280;18597;48.328;7.932;2022-07-04T11:02:36;99671.22;;;33.52;28.00
32083;BME280;18597;48.328;7.932;2022-07-04T11:05:10;99672.91;;;33.27;28.32
32083;BME280;18597;48.328;7.932;2022-07-04T11:18:11;99665.41;;;32.46;29.45
32083;BME280;18597;48.328;7.932;2022-07-04T11:20:41;99664.47;;;32.10;29.68
32083;BME280;18597;48.328;7.932;2022-07-04T11:23:17;99662.47;;;31.85;30.86
32083;BME280;18597;48.328;7.932;2022-07-04T11:25:47;99660.56;;;31.91;31.18
32083;BME280;18597;48.328;7.932;2022-07-04T11:28:31;99658.38;;;32.08;30.71
32083;BME280;18597;48.328;7.932;2022-07-04T11:31:00;99657.31;;;32.14;31.25
32083;BME280;18597;48.328;7.932;2022-07-04T11:33:29;99659.53;;;32.22;30.96
32083;BME280;18597;48.328;7.932;2022-07-04T11:36:07;99656.03;;;32.73;29.84
32083;BME280;18597;48.328;7.932;2022-07-04T11:38:57;99652.72;;;33.06;28.45
32083;BME280;18597;48.328;7.932;2022-07-04T11:41:31;99650.22;;;33.41;28.87
32083;BME280;18597;48.328;7.932;2022-07-04T11:44:24;99654.28;;;33.63;27.65
32083;BME280;18597;48.328;7.932;2022-07-04T11:47:15;99651.53;;;33.53;28.09
32083;BME280;18597;48.328;7.932;2022-07-04T11:49:59;99642.97;;;33.45;27.98
32083;BME280;18597;48.328;7.932;2022-07-04T11:52:28;99639.38;;;33.44;28.08
32083;BME280;18597;48.328;7.932;2022-07-04T11:54:54;99637.50;;;33.14;28.20
32083;BME280;18597;48.328;7.932;2022-07-04T11:57:25;99634.75;;;32.99;28.34
32083;BME280;18597;48.328;7.932;2022-07-04T12:00:10;99638.03;;;32.70;27.96
32083;BME280;18597;48.328;7.932;2022-07-04T12:02:37;99647.44;;;32.69;28.43
32083;BME280;18597;48.328;7.932;2022-07-04T12:05:08;99633.91;;;32.98;28.52
32083;BME280;18597;48.328;7.932;2022-07-04T12:07:38;99641.34;;;33.33;28.34
32083;BME280;18597;48.328;7.932;2022-07-04T12:10:17;99629.38;;;33.53;28.65
32083;BME280;18597;48.328;7.932;2022-07-04T12:15:50;99633.75;;;33.70;28.13
32083;BME280;18597;48.328;7.932;2022-07-04T12:18:22;99626.00;;;33.66;28.42
32083;BME280;18597;48.328;7.932;2022-07-04T12:20:49;99624.44;;;33.45;28.14
32083;BME280;18597;48.328;7.932;2022-07-04T12:23:18;99620.00;;;33.44;28.92
32083;BME280;18597;48.328;7.932;2022-07-04T12:25:48;99623.59;;;33.39;28.65
32083;BME280;18597;48.328;7.932;2022-07-04T12:28:17;99614.72;;;33.32;29.21
32083;BME280;18597;48.328;7.932;2022-07-04T12:30:54;99615.31;;;33.24;28.55
32083;BME280;18597;48.328;7.932;2022-07-04T12:33:23;99604.84;;;33.01;28.60
32083;BME280;18597;48.328;7.932;2022-07-04T12:35:55;99596.00;;;32.68;30.09
32083;BME280;18597;48.328;7.932;2022-07-04T12:41:11;99608.72;;;32.64;29.93
32083;BME280;18597;48.328;7.932;2022-07-04T12:43:47;99594.91;;;32.69;29.85
32083;BME280;18597;48.328;7.932;2022-07-04T12:46:31;99592.69;;;32.71;31.10
32083;BME280;18597;48.328;7.932;2022-07-04T12:49:00;99583.56;;;32.61;29.97
32083;BME280;18597;48.328;7.932;2022-07-04T12:51:31;99584.94;;;32.78;30.74
32083;BME280;18597;48.328;7.932;2022-07-04T12:54:06;99581.63;;;32.46;29.99
32083;BME280;18597;48.328;7.932;2022-07-04T12:56:36;99573.56;;;32.24;30.62
32083;BME280;18597;48.328;7.932;2022-07-04T12:59:06;99563.41;;;32.35;30.96
32083;BME280;18597;48.328;7.932;2022-07-04T13:01:33;99565.56;;;32.27;31.33
32083;BME280;18597;48.328;7.932;2022-07-04T13:04:00;99557.28;;;32.33;31.73
32083;BME280;18597;48.328;7.932;2022-07-04T13:06:27;99550.66;;;32.39;30.80
32083;BME280;18597;48.328;7.932;2022-07-04T13:08:54;99560.88;;;32.53;31.27
32083;BME280;18597;48.328;7.932;2022-07-04T13:11:20;99555.91;;;32.66;31.19
32083;BME280;18597;48.328;7.932;2022-07-04T13:14:06;99547.63;;;32.45;30.26
32083;BME280;18597;48.328;7.932;2022-07-04T13:16:32;99548.72;;;32.39;30.87
32083;BME280;18597;48.328;7.932;2022-07-04T13:18:58;99550.63;;;32.28;31.38
32083;BME280;18597;48.328;7.932;2022-07-04T13:21:25;99550.38;;;32.20;30.38
32083;BME280;18597;48.328;7.932;2022-07-04T13:23:52;99548.19;;;32.37;30.31
32083;BME280;18597;48.328;7.932;2022-07-04T13:26:18;99555.09;;;32.50;29.74
32083;BME280;18597;48.328;7.932;2022-07-04T13:28:44;99557.84;;;32.75;30.40
32083;BME280;18597;48.328;7.932;2022-07-04T13:31:11;99553.97;;;32.87;30.33
32083;BME280;18597;48.328;7.932;2022-07-04T13:33:37;99553.94;;;32.76;29.69